createdAt,value
2022-09-15T00:00:11.483Z,49.53
2022-09-15T00:01:11.473Z,49.26
2022-09-15T00:02:11.662Z,49.56
2022-09-15T00:03:11.505Z,49.29
2022-09-15T00:04:11.439Z,49.65
2022-09-15T00:05:11.438Z,49.79
2022-09-15T00:06:11.404Z,49.79
2022-09-15T00:07:11.408Z,49.76
2022-09-15T00:08:11.388Z,49.06
2022-09-15T00:09:11.379Z,49.50
2022-09-15T00:10:11.351Z,49.62
2022-09-15T00:11:11.346Z,49.29
2022-09-15T00:12:11.330Z,49.47
2022-09-15T00:13:11.321Z,49.67
2022-09-15T00:14:11.326Z,49.32
2022-09-15T00:15:11.303Z,49.32
2022-09-15T00:16:14.815Z,49.41
2022-09-15T00:17:11.370Z,49.41
2022-09-15T00:18:11.254Z,48.77
2022-09-15T00:19:11.247Z,49.09
2022-09-15T00:20:11.250Z,49.17
2022-09-15T00:21:11.231Z,48.74
2022-09-15T00:22:11.218Z,48.89
2022-09-15T00:23:11.199Z,48.94
2022-09-15T00:24:11.192Z,48.92
2022-09-15T00:25:11.172Z,48.71
2022-09-15T00:26:11.160Z,48.21
2022-09-15T00:27:11.141Z,47.90
2022-09-15T00:28:11.128Z,48.12
2022-09-15T00:29:11.118Z,48.09
2022-09-15T00:30:11.114Z,48.40
2022-09-15T00:31:11.184Z,48.04
2022-09-15T00:32:11.081Z,48.35
2022-09-15T00:33:11.079Z,48.46
2022-09-15T00:34:11.051Z,48.60
2022-09-15T00:35:11.069Z,48.43
2022-09-15T00:36:11.032Z,48.66
2022-09-15T00:37:11.025Z,48.66
2022-09-15T00:38:11.004Z,48.43
2022-09-15T00:39:10.998Z,48.37
2022-09-15T00:40:11.027Z,48.26
2022-09-15T00:41:10.976Z,48.01
2022-09-15T00:42:10.943Z,47.79
2022-09-15T00:43:10.949Z,47.54
2022-09-15T00:44:10.946Z,47.85
2022-09-15T00:45:10.932Z,47.76
2022-09-15T00:46:10.948Z,48.04
2022-09-15T00:47:19.130Z,48.07
2022-09-15T00:48:10.877Z,47.74
2022-09-15T00:49:10.871Z,48.12
2022-09-15T00:50:10.847Z,48.49
2022-09-15T00:51:10.829Z,48.35
2022-09-15T00:52:10.815Z,47.76
2022-09-15T00:53:10.817Z,48.21
2022-09-15T00:54:10.790Z,47.76
2022-09-15T00:55:10.776Z,48.12
2022-09-15T00:56:10.767Z,48.07
2022-09-15T00:57:10.753Z,48.01
2022-09-15T00:58:10.731Z,47.82
2022-09-15T00:59:10.743Z,48.15
2022-09-15T01:00:10.709Z,47.68
2022-09-15T01:01:10.742Z,47.38
2022-09-15T01:02:10.734Z,47.93
2022-09-15T01:03:10.677Z,47.82
2022-09-15T01:04:10.654Z,48.12
2022-09-15T01:05:10.657Z,48.15
2022-09-15T01:06:10.629Z,48.18
2022-09-15T01:07:10.619Z,48.18
2022-09-15T01:08:10.626Z,48.43
2022-09-15T01:09:10.614Z,48.37
2022-09-15T01:10:10.575Z,48.60
2022-09-15T01:11:10.579Z,48.32
2022-09-15T01:12:10.554Z,48.32
2022-09-15T01:13:10.555Z,48.51
2022-09-15T01:14:10.537Z,48.92
2022-09-15T01:15:10.516Z,48.40
2022-09-15T01:16:10.547Z,48.21
2022-09-15T01:17:10.491Z,48.51
2022-09-15T01:18:10.476Z,48.37
2022-09-15T01:19:10.469Z,48.32
2022-09-15T01:20:10.455Z,47.98
2022-09-15T01:21:10.455Z,47.90
2022-09-15T01:22:10.419Z,48.35
2022-09-15T01:23:10.414Z,48.74
2022-09-15T01:24:10.403Z,48.83
2022-09-15T01:25:10.387Z,48.60
2022-09-15T01:26:10.373Z,48.77
2022-09-15T01:27:30.928Z,49.15
2022-09-15T01:28:10.351Z,49.56
2022-09-15T01:29:10.354Z,49.26
2022-09-15T01:30:10.321Z,49.12
2022-09-15T01:31:10.334Z,49.76
2022-09-15T01:32:10.305Z,49.82
2022-09-15T01:33:10.289Z,49.79
2022-09-15T01:34:10.270Z,49.76
2022-09-15T01:35:10.255Z,49.85
2022-09-15T01:36:10.238Z,49.91
2022-09-15T01:37:10.244Z,50.09
2022-09-15T01:38:10.230Z,50.12
2022-09-15T01:39:10.207Z,50.58
2022-09-15T01:40:10.287Z,50.61
2022-09-15T01:41:10.180Z,51.05
2022-09-15T01:42:10.164Z,51.40
2022-09-15T01:43:10.185Z,52.20
2022-09-15T01:44:10.167Z,51.94
2022-09-15T01:45:10.131Z,52.76
2022-09-15T01:46:10.158Z,53.41
2022-09-15T01:47:10.127Z,53.93
2022-09-15T01:48:10.081Z,53.69
2022-09-15T01:49:10.072Z,53.86
2022-09-15T01:50:10.068Z,54.25
2022-09-15T01:51:10.046Z,54.89
2022-09-15T01:52:10.045Z,55.18
2022-09-15T01:53:10.034Z,55.40
2022-09-15T01:54:10.020Z,55.92
2022-09-15T01:55:09.995Z,56.23
2022-09-15T01:56:09.984Z,55.62
2022-09-15T01:57:09.979Z,56.49
2022-09-15T01:58:09.955Z,56.84
2022-09-15T01:59:09.949Z,56.80
2022-09-15T02:00:09.933Z,56.76
2022-09-15T02:01:10.004Z,57.15
2022-09-15T02:02:10.078Z,57.99
2022-09-15T02:03:09.899Z,57.83
2022-09-15T02:04:09.876Z,58.44
2022-09-15T02:05:09.875Z,59.15
2022-09-15T02:06:09.851Z,58.56
2022-09-15T02:07:09.842Z,58.61
2022-09-15T02:08:09.898Z,58.24
2022-09-15T02:09:09.814Z,58.61
2022-09-15T02:10:09.801Z,58.36
2022-09-15T02:11:09.793Z,57.95
2022-09-15T02:12:09.778Z,57.67
2022-09-15T02:13:09.770Z,57.51
2022-09-15T02:14:09.760Z,57.39
2022-09-15T02:15:09.738Z,58.40
2022-09-15T02:16:09.742Z,58.20
2022-09-15T02:17:09.723Z,58.90
2022-09-15T02:18:09.707Z,58.77
2022-09-15T02:19:09.690Z,58.56
2022-09-15T02:20:09.687Z,57.55
2022-09-15T02:21:09.658Z,58.03
2022-09-15T02:22:09.642Z,57.59
2022-09-15T02:23:09.655Z,57.23
2022-09-15T02:24:09.617Z,57.23
2022-09-15T02:25:09.612Z,57.59
2022-09-15T02:26:09.595Z,57.67
2022-09-15T02:27:09.581Z,57.43
2022-09-15T02:28:09.569Z,57.63
2022-09-15T02:29:09.569Z,57.15
2022-09-15T02:30:09.550Z,57.95
2022-09-15T02:31:09.594Z,57.87
2022-09-15T02:32:09.536Z,57.35
2022-09-15T02:33:09.508Z,56.76
2022-09-15T02:34:09.499Z,56.11
2022-09-15T02:35:09.484Z,56.11
2022-09-15T02:36:09.463Z,55.66
2022-09-15T02:37:09.460Z,56.84
2022-09-15T02:38:09.447Z,56.04
2022-09-15T02:39:09.446Z,56.57
2022-09-15T02:40:09.482Z,57.08
2022-09-15T02:41:09.411Z,57.83
2022-09-15T02:42:09.398Z,57.67
2022-09-15T02:43:09.381Z,57.71
2022-09-15T02:44:09.362Z,57.31
2022-09-15T02:45:09.365Z,57.47
2022-09-15T02:46:09.482Z,56.69
2022-09-15T02:47:09.334Z,55.74
2022-09-15T02:48:09.323Z,55.92
2022-09-15T02:49:09.301Z,56.04
2022-09-15T02:50:09.286Z,56.23
2022-09-15T02:51:09.282Z,55.44
2022-09-15T02:52:09.275Z,55.29
2022-09-15T02:53:09.269Z,56.15
2022-09-15T02:54:09.237Z,56.76
2022-09-15T02:55:09.226Z,56.69
2022-09-15T02:56:09.204Z,57.39
2022-09-15T02:57:09.208Z,56.61
2022-09-15T02:58:09.178Z,56.69
2022-09-15T02:59:09.177Z,57.15
2022-09-15T03:00:09.158Z,57.51
2022-09-15T03:01:09.220Z,56.88
2022-09-15T03:02:09.199Z,56.23
2022-09-15T03:03:09.135Z,57.23
2022-09-15T03:04:09.119Z,57.19
2022-09-15T03:05:09.095Z,57.91
2022-09-15T03:06:09.098Z,57.51
2022-09-15T03:07:09.073Z,58.15
2022-09-15T03:08:09.052Z,58.20
2022-09-15T03:09:09.045Z,58.81
2022-09-15T03:10:09.029Z,58.77
2022-09-15T03:11:09.015Z,58.48
2022-09-15T03:12:09.036Z,58.81
2022-09-15T03:13:08.992Z,58.90
2022-09-15T03:14:08.975Z,57.63
2022-09-15T03:15:08.982Z,57.19
2022-09-15T03:16:09.063Z,57.91
2022-09-15T03:17:08.946Z,58.48
2022-09-15T03:18:08.927Z,59.06
2022-09-15T03:19:08.930Z,58.48
2022-09-15T03:20:08.895Z,58.40
2022-09-15T03:21:08.886Z,58.52
2022-09-15T03:22:08.871Z,58.61
2022-09-15T03:23:08.858Z,57.15
2022-09-15T03:24:08.860Z,56.96
2022-09-15T03:25:08.841Z,57.39
2022-09-15T03:26:08.824Z,57.95
2022-09-15T03:27:08.818Z,58.20
2022-09-15T03:28:08.796Z,56.88
2022-09-15T03:29:08.788Z,57.39
2022-09-15T03:30:08.783Z,58.24
2022-09-15T03:31:08.859Z,57.23
2022-09-15T03:32:08.759Z,57.75
2022-09-15T03:33:08.755Z,57.47
2022-09-15T03:34:08.716Z,57.99
2022-09-15T03:35:08.701Z,57.99
2022-09-15T03:36:08.698Z,57.79
2022-09-15T03:37:08.677Z,56.46
2022-09-15T03:38:08.672Z,56.00
2022-09-15T03:39:08.670Z,55.40
2022-09-15T03:40:08.729Z,55.92
2022-09-15T03:41:08.620Z,56.53
2022-09-15T03:42:08.620Z,57.31
2022-09-15T03:43:08.596Z,58.03
2022-09-15T03:44:08.592Z,56.76
2022-09-15T03:45:08.591Z,56.84
2022-09-15T03:46:08.630Z,55.33
2022-09-15T03:47:08.551Z,54.32
2022-09-15T03:48:08.544Z,54.96
2022-09-15T03:49:08.529Z,56.38
2022-09-15T03:50:08.514Z,56.69
2022-09-15T03:51:08.497Z,56.49
2022-09-15T03:52:08.500Z,55.62
2022-09-15T03:53:08.468Z,55.22
2022-09-15T03:54:08.473Z,56.23
2022-09-15T03:55:08.447Z,57.00
2022-09-15T03:56:08.437Z,55.74
2022-09-15T03:57:08.446Z,55.51
2022-09-15T03:58:08.407Z,55.48
2022-09-15T03:59:08.397Z,57.39
2022-09-15T04:00:08.417Z,58.03
2022-09-15T04:01:08.436Z,58.98
2022-09-15T04:02:08.429Z,59.70
2022-09-15T04:03:08.346Z,58.77
2022-09-15T04:04:08.337Z,58.03
2022-09-15T04:05:08.323Z,58.90
2022-09-15T04:06:08.317Z,58.28
2022-09-15T04:07:08.288Z,56.65
2022-09-15T04:08:08.282Z,57.79
2022-09-15T04:09:08.272Z,58.61
2022-09-15T04:10:08.251Z,59.32
2022-09-15T04:11:08.263Z,59.32
2022-09-15T04:12:08.247Z,60.13
2022-09-15T04:13:08.216Z,59.70
2022-09-15T04:14:08.216Z,57.59
2022-09-15T04:15:08.203Z,58.56
2022-09-15T04:16:08.289Z,59.19
2022-09-15T04:17:08.157Z,58.90
2022-09-15T04:18:08.150Z,60.00
2022-09-15T04:19:08.147Z,57.83
2022-09-15T04:20:08.135Z,56.80
2022-09-15T04:21:08.105Z,57.71
2022-09-15T04:22:08.114Z,59.11
2022-09-15T04:23:08.081Z,58.40
2022-09-15T04:24:08.080Z,59.79
2022-09-15T04:25:08.063Z,58.81
2022-09-15T04:26:08.051Z,59.53
2022-09-15T04:27:08.026Z,59.49
2022-09-15T04:28:08.027Z,58.44
2022-09-15T04:29:08.005Z,58.61
2022-09-15T04:30:07.999Z,58.32
2022-09-15T04:31:08.033Z,59.49
2022-09-15T04:32:07.970Z,59.62
2022-09-15T04:33:07.959Z,59.66
2022-09-15T04:34:07.946Z,57.91
2022-09-15T04:35:07.930Z,57.99
2022-09-15T04:36:07.940Z,57.35
2022-09-15T04:37:07.899Z,57.91
2022-09-15T04:38:07.902Z,58.03
2022-09-15T04:39:07.874Z,57.95
2022-09-15T04:40:07.877Z,57.83
2022-09-15T04:41:07.865Z,57.95
2022-09-15T04:42:07.857Z,60.62
2022-09-15T04:43:07.829Z,61.10
2022-09-15T04:44:07.835Z,61.38
2022-09-15T04:45:07.797Z,62.62
2022-09-15T04:46:07.799Z,62.34
2022-09-15T04:47:07.854Z,63.05
2022-09-15T04:48:07.791Z,61.88
2022-09-15T04:49:07.761Z,62.16
2022-09-15T04:50:07.773Z,63.92
2022-09-15T04:51:07.724Z,63.49
2022-09-15T04:52:09.835Z,63.19
2022-09-15T04:53:07.702Z,63.19
2022-09-15T04:54:07.681Z,61.10
2022-09-15T04:55:07.712Z,61.15
2022-09-15T04:56:07.695Z,59.06
2022-09-15T04:57:07.652Z,57.39
2022-09-15T04:58:07.647Z,58.94
2022-09-15T04:59:07.642Z,59.28
2022-09-15T05:00:07.606Z,59.79
2022-09-15T05:01:07.657Z,60.93
2022-09-15T05:02:07.661Z,59.87
2022-09-15T05:03:07.577Z,60.44
2022-09-15T05:04:07.556Z,58.98
2022-09-15T05:05:07.555Z,59.74
2022-09-15T05:06:07.532Z,60.09
2022-09-15T05:07:07.508Z,62.20
2022-09-15T05:08:07.547Z,62.53
2022-09-15T05:09:10.333Z,62.62
2022-09-15T05:10:07.497Z,63.34
2022-09-15T05:11:07.461Z,62.86
2022-09-15T05:12:07.487Z,61.28
2022-09-15T05:13:07.442Z,60.39
2022-09-15T05:14:07.425Z,60.62
2022-09-15T05:15:07.427Z,61.65
2022-09-15T05:16:07.474Z,63.34
2022-09-15T05:17:07.389Z,63.34
2022-09-15T05:18:07.378Z,62.96
2022-09-15T05:19:07.361Z,62.67
2022-09-15T05:20:07.372Z,62.53
2022-09-15T05:21:07.348Z,63.49
2022-09-15T05:22:07.339Z,62.86
2022-09-15T05:23:07.357Z,62.06
2022-09-15T05:24:07.327Z,62.96
2022-09-15T05:25:07.296Z,63.00
2022-09-15T05:26:07.310Z,62.91
2022-09-15T05:27:07.263Z,61.28
2022-09-15T05:28:07.265Z,59.83
2022-09-15T05:29:07.230Z,60.26
2022-09-15T05:30:34.937Z,61.65
2022-09-15T05:31:07.279Z,63.39
2022-09-15T05:32:07.216Z,63.10
2022-09-15T05:33:07.191Z,61.28
2022-09-15T05:34:07.171Z,62.91
2022-09-15T05:35:07.185Z,62.34
2022-09-15T05:36:07.150Z,63.24
2022-09-15T05:37:07.133Z,63.24
2022-09-15T05:38:07.121Z,60.26
2022-09-15T05:39:07.105Z,58.90
2022-09-15T05:40:08.725Z,58.61
2022-09-15T05:41:07.077Z,60.44
2022-09-15T05:42:07.088Z,60.57
2022-09-15T05:43:07.058Z,59.32
2022-09-15T05:44:07.041Z,58.81
2022-09-15T05:45:07.072Z,59.19
2022-09-15T05:46:07.069Z,59.79
2022-09-15T05:47:06.999Z,59.19
2022-09-15T05:48:06.997Z,59.11
2022-09-15T05:49:06.984Z,57.83
2022-09-15T05:50:06.962Z,58.98
2022-09-15T05:51:06.952Z,57.71
2022-09-15T05:52:06.940Z,58.77
2022-09-15T05:53:06.928Z,59.28
2022-09-15T05:54:06.912Z,59.28
2022-09-15T05:55:06.896Z,60.97
2022-09-15T05:56:06.919Z,60.31
2022-09-15T05:57:06.892Z,58.81
2022-09-15T05:58:06.860Z,58.65
2022-09-15T05:59:06.864Z,58.90
2022-09-15T06:00:06.832Z,60.97
2022-09-15T06:01:06.825Z,60.31
2022-09-15T06:02:06.887Z,60.57
2022-09-15T06:03:06.915Z,61.56
2022-09-15T06:04:06.801Z,60.48
2022-09-15T06:05:06.763Z,60.57
2022-09-15T06:06:06.762Z,61.10
2022-09-15T06:07:06.772Z,62.72
2022-09-15T06:08:06.728Z,61.42
2022-09-15T06:09:06.731Z,61.19
2022-09-15T06:10:06.722Z,60.39
2022-09-15T06:11:06.694Z,60.26
2022-09-15T06:12:06.685Z,60.48
2022-09-15T06:13:06.680Z,59.79
2022-09-15T06:14:06.663Z,59.79
2022-09-15T06:15:06.644Z,59.02
2022-09-15T06:16:06.684Z,59.15
2022-09-15T06:17:06.609Z,58.56
2022-09-15T06:18:06.610Z,60.62
2022-09-15T06:19:06.590Z,59.11
2022-09-15T06:20:06.579Z,59.87
2022-09-15T06:21:06.564Z,59.57
2022-09-15T06:22:06.547Z,57.87
2022-09-15T06:23:06.537Z,60.00
2022-09-15T06:24:06.527Z,60.57
2022-09-15T06:25:06.528Z,60.57
2022-09-15T06:26:06.507Z,59.87
2022-09-15T06:27:06.497Z,60.04
2022-09-15T06:28:06.479Z,60.04
2022-09-15T06:29:06.491Z,59.28
2022-09-15T06:30:06.442Z,59.11
2022-09-15T06:31:06.427Z,57.83
2022-09-15T06:32:06.463Z,58.28
2022-09-15T06:33:06.417Z,59.83
2022-09-15T06:34:06.410Z,60.79
2022-09-15T06:35:06.385Z,61.65
2022-09-15T06:36:06.373Z,62.29
2022-09-15T06:37:06.354Z,61.38
2022-09-15T06:38:06.339Z,61.15
2022-09-15T06:39:06.339Z,61.47
2022-09-15T06:40:06.406Z,61.24
2022-09-15T06:41:06.297Z,60.39
2022-09-15T06:42:06.306Z,62.34
2022-09-15T06:43:06.286Z,61.06
2022-09-15T06:44:06.263Z,61.79
2022-09-15T06:45:06.312Z,60.70
2022-09-15T06:46:06.330Z,60.57
2022-09-15T06:47:06.236Z,61.56
2022-09-15T06:48:23.516Z,61.88
2022-09-15T06:49:06.212Z,59.83
2022-09-15T06:50:06.230Z,58.65
2022-09-15T06:51:06.192Z,58.52
2022-09-15T06:52:06.160Z,59.28
2022-09-15T06:53:06.152Z,59.53
2022-09-15T06:54:06.155Z,57.95
2022-09-15T06:55:06.122Z,56.61
2022-09-15T06:56:06.107Z,53.72
2022-09-15T06:57:06.092Z,51.94
2022-09-15T06:58:06.086Z,51.21
2022-09-15T06:59:06.080Z,48.51
2022-09-15T07:00:06.067Z,47.63
2022-09-15T07:01:06.065Z,46.87
2022-09-15T07:02:06.204Z,45.97
2022-09-15T07:03:06.131Z,45.37
2022-09-15T07:04:06.026Z,44.78
2022-09-15T07:05:05.987Z,44.93
2022-09-15T07:06:05.987Z,44.50
2022-09-15T07:07:05.984Z,45.32
2022-09-15T07:08:05.955Z,45.82
2022-09-15T07:09:05.946Z,45.97
2022-09-15T07:10:05.940Z,45.62
2022-09-15T07:11:05.923Z,46.28
2022-09-15T07:12:05.930Z,46.12
2022-09-15T07:13:05.885Z,44.40
2022-09-15T07:14:05.874Z,44.59
2022-09-15T07:15:06.169Z,43.89
2022-09-15T07:16:05.910Z,44.31
2022-09-15T07:17:05.837Z,45.77
2022-09-15T07:18:05.830Z,45.37
2022-09-15T07:19:05.839Z,44.74
2022-09-15T07:20:05.825Z,45.87
2022-09-15T07:21:05.789Z,45.72
2022-09-15T07:22:05.783Z,45.32
2022-09-15T07:23:05.760Z,45.67
2022-09-15T07:24:07.501Z,44.88
2022-09-15T07:25:05.754Z,45.37
2022-09-15T07:26:05.728Z,45.82
2022-09-15T07:27:05.725Z,45.12
2022-09-15T07:28:05.699Z,44.21
2022-09-15T07:29:05.673Z,45.67
2022-09-15T07:30:05.673Z,44.88
2022-09-15T07:31:05.655Z,44.78
2022-09-15T07:32:05.711Z,45.12
2022-09-15T07:33:05.661Z,44.50
2022-09-15T07:34:05.630Z,44.50
2022-09-15T07:35:05.597Z,44.50
2022-09-15T07:36:05.600Z,44.54
2022-09-15T07:37:05.592Z,45.17
2022-09-15T07:38:05.556Z,45.27
2022-09-15T07:39:05.565Z,44.98
2022-09-15T07:40:05.622Z,45.52
2022-09-15T07:41:05.533Z,45.27
2022-09-15T07:42:05.523Z,44.59
2022-09-15T07:43:05.522Z,44.74
2022-09-15T07:44:05.510Z,44.50
2022-09-15T07:45:05.472Z,44.64
2022-09-15T07:46:05.517Z,44.98
2022-09-15T07:47:05.449Z,46.33
2022-09-15T07:48:05.424Z,46.59
2022-09-15T07:49:05.426Z,45.67
2022-09-15T07:50:05.411Z,46.12
2022-09-15T07:51:05.396Z,46.85
2022-09-15T07:52:05.382Z,47.85
2022-09-15T07:53:05.373Z,48.94
2022-09-15T07:54:05.378Z,49.53
2022-09-15T07:55:05.341Z,49.47
2022-09-15T07:56:05.329Z,49.06
2022-09-15T07:57:05.328Z,49.00
2022-09-15T07:58:05.298Z,49.65
2022-09-15T07:59:05.290Z,49.88
2022-09-15T08:00:05.271Z,50.43
2022-09-15T08:01:05.325Z,50.74
2022-09-15T08:02:05.330Z,50.49
2022-09-15T08:03:05.237Z,50.40
2022-09-15T08:04:05.219Z,48.51
2022-09-15T08:05:05.222Z,48.46
2022-09-15T08:06:05.195Z,47.90
2022-09-15T08:07:05.203Z,47.82
2022-09-15T08:08:05.185Z,48.94
2022-09-15T08:09:05.406Z,49.82
2022-09-15T08:10:05.138Z,49.85
2022-09-15T08:11:05.140Z,49.79
2022-09-15T08:12:05.126Z,48.43
2022-09-15T08:13:05.108Z,47.76
2022-09-15T08:14:05.091Z,48.57
2022-09-15T08:15:05.184Z,46.85
2022-09-15T08:16:05.142Z,47.71
2022-09-15T08:17:09.414Z,49.06
2022-09-15T08:18:05.098Z,49.71
2022-09-15T08:19:05.038Z,50.28
2022-09-15T08:20:05.023Z,49.38
2022-09-15T08:21:05.003Z,49.15
2022-09-15T08:22:04.989Z,49.56
2022-09-15T08:23:04.996Z,50.71
2022-09-15T08:24:04.980Z,51.08
2022-09-15T08:25:04.949Z,50.74
2022-09-15T08:26:05.131Z,50.34
2022-09-15T08:27:04.929Z,49.71
2022-09-15T08:28:04.921Z,50.25
2022-09-15T08:29:04.920Z,50.15
2022-09-15T08:30:05.214Z,49.85
2022-09-15T08:31:04.981Z,50.12
2022-09-15T08:32:04.876Z,50.49
2022-09-15T08:33:04.869Z,52.10
2022-09-15T08:34:04.855Z,52.90
2022-09-15T08:35:04.844Z,52.83
2022-09-15T08:36:04.807Z,52.47
2022-09-15T08:37:04.841Z,53.10
2022-09-15T08:38:04.782Z,53.10
2022-09-15T08:39:04.784Z,52.50
2022-09-15T08:40:04.815Z,52.73
2022-09-15T08:41:04.742Z,52.14
2022-09-15T08:42:04.747Z,52.07
2022-09-15T08:43:04.716Z,52.27
2022-09-15T08:44:04.706Z,52.63
2022-09-15T08:45:04.704Z,54.53
2022-09-15T08:46:04.756Z,53.79
2022-09-15T08:47:04.671Z,54.60
2022-09-15T08:48:04.673Z,54.14
2022-09-15T08:49:04.640Z,53.96
2022-09-15T08:50:04.624Z,54.57
2022-09-15T08:51:04.622Z,54.42
2022-09-15T08:52:04.614Z,54.82
2022-09-15T08:53:04.595Z,54.25
2022-09-15T08:54:04.572Z,53.96
2022-09-15T08:55:04.620Z,53.10
2022-09-15T08:56:08.177Z,53.65
2022-09-15T08:57:04.541Z,53.93
2022-09-15T08:58:04.552Z,52.97
2022-09-15T08:59:04.527Z,57.08
2022-09-15T09:00:04.494Z,59.92
2022-09-15T09:01:04.492Z,60.88
2022-09-15T09:02:04.514Z,59.49
2022-09-15T09:03:04.520Z,60.26
2022-09-15T09:04:04.477Z,61.33
2022-09-15T09:05:04.455Z,61.15
2022-09-15T09:06:04.422Z,62.20
2022-09-15T09:07:04.416Z,62.16
2022-09-15T09:08:04.393Z,62.20
2022-09-15T09:09:04.421Z,61.92
2022-09-15T09:10:04.373Z,61.38
2022-09-15T09:11:04.361Z,61.42
2022-09-15T09:12:04.357Z,61.97
2022-09-15T09:13:04.365Z,62.67
2022-09-15T09:14:04.323Z,61.60
2022-09-15T09:15:04.334Z,61.28
2022-09-15T09:16:04.353Z,60.31
2022-09-15T09:17:04.304Z,60.39
2022-09-15T09:18:04.278Z,61.92
2022-09-15T09:19:04.291Z,62.96
2022-09-15T09:20:04.253Z,62.86
2022-09-15T09:21:04.226Z,62.77
2022-09-15T09:22:04.212Z,62.91
2022-09-15T09:23:04.225Z,62.48
2022-09-15T09:24:04.202Z,61.69
2022-09-15T09:25:21.111Z,60.97
2022-09-15T09:26:08.634Z,60.84
2022-09-15T09:27:04.155Z,59.70
2022-09-15T09:28:04.135Z,60.53
2022-09-15T09:29:04.138Z,62.29
2022-09-15T09:30:04.111Z,62.29
2022-09-15T09:31:04.180Z,61.24
2022-09-15T09:32:04.101Z,63.05
2022-09-15T09:33:04.064Z,63.68
2022-09-15T09:34:04.062Z,62.39
2022-09-15T09:35:04.044Z,64.62
2022-09-15T09:36:04.033Z,63.88
2022-09-15T09:37:04.012Z,65.64
2022-09-15T09:38:03.992Z,63.83
2022-09-15T09:39:03.985Z,62.39
2022-09-15T09:40:04.029Z,61.38
2022-09-15T09:41:03.974Z,62.34
2022-09-15T09:42:03.938Z,61.51
2022-09-15T09:43:03.929Z,62.29
2022-09-15T09:44:03.917Z,63.34
2022-09-15T09:45:03.923Z,63.29
2022-09-15T09:46:03.921Z,63.53
2022-09-15T09:47:03.895Z,64.32
2022-09-15T09:48:03.877Z,66.59
2022-09-15T09:49:03.851Z,67.12
2022-09-15T09:50:03.841Z,65.80
2022-09-15T09:51:03.835Z,66.27
2022-09-15T09:52:03.808Z,63.92
2022-09-15T09:53:03.809Z,63.39
2022-09-15T09:54:03.788Z,62.86
2022-09-15T09:55:03.827Z,63.00
2022-09-15T09:56:03.764Z,64.92
2022-09-15T09:57:03.769Z,66.59
2022-09-15T09:58:03.729Z,66.53
2022-09-15T09:59:03.731Z,66.48
2022-09-15T10:00:03.702Z,66.91
2022-09-15T10:01:03.774Z,66.16
2022-09-15T10:02:03.702Z,66.16
2022-09-15T10:03:03.676Z,66.80
2022-09-15T10:04:03.652Z,66.96
2022-09-15T10:05:03.681Z,68.00
2022-09-15T10:06:03.641Z,67.29
2022-09-15T10:07:03.619Z,67.02
2022-09-15T10:08:03.613Z,66.22
2022-09-15T10:09:03.590Z,66.64
2022-09-15T10:10:03.611Z,68.45
2022-09-15T10:11:03.590Z,67.67
2022-09-15T10:12:03.564Z,65.90
2022-09-15T10:13:03.564Z,64.72
2022-09-15T10:14:03.539Z,65.59
2022-09-15T10:15:03.512Z,67.23
2022-09-15T10:16:03.496Z,66.48
2022-09-15T10:17:03.563Z,67.51
2022-09-15T10:18:03.482Z,68.17
2022-09-15T10:19:03.467Z,69.36
2022-09-15T10:20:03.456Z,69.25
2022-09-15T10:21:03.438Z,69.08
2022-09-15T10:22:03.434Z,69.60
2022-09-15T10:23:03.421Z,69.36
2022-09-15T10:24:03.406Z,68.11
2022-09-15T10:25:03.388Z,68.73
2022-09-15T10:26:03.366Z,66.59
2022-09-15T10:27:03.356Z,68.56
2022-09-15T10:28:03.362Z,69.66
2022-09-15T10:29:03.334Z,69.95
2022-09-15T10:30:03.320Z,70.72
2022-09-15T10:31:03.308Z,67.34
2022-09-15T10:32:03.452Z,67.62
2022-09-15T10:33:03.291Z,66.37
2022-09-15T10:34:03.264Z,67.02
2022-09-15T10:35:03.256Z,66.69
2022-09-15T10:36:03.231Z,68.34
2022-09-15T10:37:03.225Z,70.78
2022-09-15T10:38:03.205Z,71.89
2022-09-15T10:39:03.197Z,71.57
2022-09-15T10:40:03.230Z,70.66
2022-09-15T10:41:03.179Z,71.15
2022-09-15T10:42:03.149Z,70.78
2022-09-15T10:43:03.146Z,72.01
2022-09-15T10:44:03.558Z,72.20
2022-09-15T10:45:03.113Z,70.66
2022-09-15T10:46:03.156Z,71.03
2022-09-15T10:47:03.094Z,70.84
2022-09-15T10:48:03.073Z,69.89
2022-09-15T10:49:03.070Z,69.31
2022-09-15T10:50:03.044Z,68.85
2022-09-15T10:51:03.033Z,70.07
2022-09-15T10:52:03.051Z,71.82
2022-09-15T10:53:03.013Z,73.21
2022-09-15T10:54:02.997Z,73.86
2022-09-15T10:55:03.014Z,72.77
2022-09-15T10:56:02.962Z,73.41
2022-09-15T10:57:02.971Z,73.15
2022-09-15T10:58:02.970Z,72.13
2022-09-15T10:59:02.945Z,71.57
2022-09-15T11:00:02.927Z,71.76
2022-09-15T11:01:02.960Z,72.26
2022-09-15T11:02:02.941Z,72.01
2022-09-15T11:03:02.874Z,71.76
2022-09-15T11:04:02.898Z,71.08
2022-09-15T11:05:02.865Z,67.95
2022-09-15T11:06:02.852Z,69.60
2022-09-15T11:07:02.826Z,69.95
2022-09-15T11:08:02.828Z,70.66
2022-09-15T11:09:02.798Z,70.30
2022-09-15T11:10:02.795Z,68.56
2022-09-15T11:11:02.797Z,68.90
2022-09-15T11:12:02.754Z,70.13
2022-09-15T11:13:02.739Z,70.54
2022-09-15T11:14:02.722Z,71.27
2022-09-15T11:15:02.743Z,71.33
2022-09-15T11:16:02.796Z,70.18
2022-09-15T11:17:02.684Z,70.60
2022-09-15T11:18:02.706Z,72.26
2022-09-15T11:19:02.693Z,72.32
2022-09-15T11:20:02.643Z,72.51
2022-09-15T11:21:02.660Z,72.13
2022-09-15T11:22:02.624Z,71.64
2022-09-15T11:23:02.618Z,71.95
2022-09-15T11:24:02.599Z,72.26
2022-09-15T11:25:02.581Z,71.64
2022-09-15T11:26:02.730Z,70.96
2022-09-15T11:27:02.571Z,72.39
2022-09-15T11:28:02.548Z,73.67
2022-09-15T11:29:02.531Z,73.41
2022-09-15T11:30:02.556Z,71.03
2022-09-15T11:31:02.544Z,71.89
2022-09-15T11:33:02.476Z,74.19
2022-09-15T11:34:02.460Z,74.86
2022-09-15T11:35:02.448Z,74.53
2022-09-15T11:36:02.444Z,73.41
2022-09-15T11:37:02.432Z,72.89
2022-09-15T11:38:02.405Z,74.33
2022-09-15T11:39:02.414Z,75.41
2022-09-15T11:40:02.435Z,73.80
2022-09-15T11:41:02.382Z,72.64
2022-09-15T11:42:02.352Z,71.76
2022-09-15T11:43:02.340Z,72.07
2022-09-15T11:44:02.324Z,73.15
2022-09-15T11:45:02.322Z,74.06
2022-09-15T11:46:02.336Z,72.45
2022-09-15T11:47:02.306Z,73.21
2022-09-15T11:48:02.273Z,72.45
2022-09-15T11:49:02.319Z,71.89
2022-09-15T11:50:02.246Z,69.66
2022-09-15T11:51:02.236Z,68.79
2022-09-15T11:52:02.233Z,67.84
2022-09-15T11:53:02.230Z,67.56
2022-09-15T11:54:02.194Z,68.56
2022-09-15T11:55:02.179Z,66.64
2022-09-15T11:56:02.178Z,67.89
2022-09-15T11:57:02.147Z,67.62
2022-09-15T11:58:02.151Z,68.79
2022-09-15T11:59:02.131Z,68.85
2022-09-15T12:00:02.114Z,69.48
2022-09-15T12:01:02.106Z,69.77
2022-09-15T12:02:02.143Z,67.34
2022-09-15T12:03:02.128Z,65.69
2022-09-15T12:04:02.077Z,65.07
2022-09-15T12:05:02.054Z,64.97
2022-09-15T12:06:02.042Z,65.33
2022-09-15T12:07:02.031Z,65.43
2022-09-15T12:08:02.015Z,65.85
2022-09-15T12:09:01.991Z,65.74
2022-09-15T12:10:02.022Z,66.96
2022-09-15T12:11:01.969Z,67.62
2022-09-15T12:12:01.961Z,68.51
2022-09-15T12:13:01.943Z,67.73
2022-09-15T12:14:01.981Z,66.53
2022-09-15T12:15:01.918Z,68.34
2022-09-15T12:16:01.954Z,69.54
2022-09-15T12:17:01.919Z,68.11
2022-09-15T12:18:06.647Z,65.85
2022-09-15T12:19:01.865Z,67.34
2022-09-15T12:20:01.908Z,67.23
2022-09-15T12:21:01.833Z,67.45
2022-09-15T12:22:01.831Z,66.69
2022-09-15T12:23:01.805Z,67.62
2022-09-15T12:24:01.808Z,69.31
2022-09-15T12:25:01.788Z,70.66
2022-09-15T12:26:01.785Z,71.27
2022-09-15T12:27:01.777Z,70.18
2022-09-15T12:28:01.747Z,69.95
2022-09-15T12:29:01.727Z,69.83
2022-09-15T12:30:01.728Z,69.66
2022-09-15T12:31:01.724Z,70.24
2022-09-15T12:32:01.694Z,69.77
2022-09-15T12:33:01.683Z,67.07
2022-09-15T12:34:01.667Z,65.13
2022-09-15T12:35:01.663Z,64.22
2022-09-15T12:36:01.653Z,63.97
2022-09-15T12:37:01.629Z,64.62
2022-09-15T12:38:01.613Z,64.27
2022-09-15T12:39:01.611Z,65.28
2022-09-15T12:40:01.644Z,66.16
2022-09-15T12:41:01.579Z,65.69
2022-09-15T12:42:01.573Z,63.53
2022-09-15T12:43:01.549Z,60.48
2022-09-15T12:44:01.545Z,61.38
2022-09-15T12:45:01.541Z,62.02
2022-09-15T12:46:01.603Z,62.58
2022-09-15T12:47:01.505Z,62.58
2022-09-15T12:48:01.502Z,61.42
2022-09-15T12:49:01.479Z,62.25
2022-09-15T12:50:01.465Z,62.48
2022-09-15T12:51:01.456Z,61.01
2022-09-15T12:52:01.437Z,62.29
2022-09-15T12:53:01.420Z,64.02